Time;durP1;ratioP1;P1;durP2;ratioP2;P2;SDS_P1;SDS_P2;PMS_P1;PMS_P2;Temp;Humidity;BMP_temperature;BMP_pressure;BME280_temperature;BME280_humidity;BME280_pressure;Samples;Min_cycle;Max_cycle;Signal;HPM_P1;HPM_P2
2022/04/08 00:01:35;;;;;;;3.73;1.40;;;7.10;99.90;;;;;;5016515;28;20694;-84
2022/04/08 00:04:02;;;;;;;4.60;1.47;;;5.90;99.90;;;;;;5021447;28;20215;-87
2022/04/08 00:06:29;;;;;;;8.73;1.57;;;5.90;99.90;;;;;;5023057;28;20266;-86
2022/04/08 00:08:56;;;;;;;5.20;1.30;;;5.80;99.90;;;;;;5009541;28;20251;-85
2022/04/08 00:11:23;;;;;;;3.23;1.30;;;5.80;99.90;;;;;;5007963;28;20215;-87
2022/04/08 00:13:52;;;;;;;2.60;1.67;;;5.80;99.90;;;;;;5014302;28;20288;-86
2022/04/08 00:16:20;;;;;;;6.57;1.43;;;5.70;99.90;;;;;;5003850;28;20627;-88
2022/04/08 00:18:48;;;;;;;4.40;1.30;;;5.80;99.90;;;;;;5006296;28;20211;-85
2022/04/08 00:21:15;;;;;;;4.50;1.53;;;5.80;99.90;;;;;;5012451;28;20314;-84
2022/04/08 00:23:42;;;;;;;8.37;1.33;;;5.80;99.90;;;;;;5008189;28;20301;-86
2022/04/08 00:26:09;;;;;;;3.43;1.60;;;5.80;99.90;;;;;;5007376;28;20211;-85
2022/04/08 00:28:36;;;;;;;4.13;1.77;;;5.80;99.90;;;;;;5012304;28;20705;-85
2022/04/08 00:31:04;;;;;;;3.90;1.43;;;5.80;99.90;;;;;;5003732;28;20306;-86
2022/04/08 00:33:32;;;;;;;4.10;1.20;;;5.80;99.90;;;;;;5006650;28;20207;-84
2022/04/08 00:36:00;;;;;;;5.97;1.63;;;5.80;99.90;;;;;;5004464;28;20198;-82
2022/04/08 00:38:27;;;;;;;6.73;1.60;;;5.80;99.90;;;;;;5006007;28;20315;-82
2022/04/08 00:40:54;;;;;;;7.37;1.70;;;5.80;99.90;;;;;;5010756;28;20199;-86
2022/04/08 00:43:33;;;;;;;4.53;1.53;;;5.80;99.90;;;;;;5008279;28;20213;-83
2022/04/08 00:46:01;;;;;;;5.60;1.63;;;5.80;99.90;;;;;;5007775;28;20293;-86
2022/04/08 00:48:28;;;;;;;5.27;2.23;;;5.90;99.90;;;;;;5006321;28;20221;-85
2022/04/08 00:50:55;;;;;;;7.07;1.67;;;5.90;99.90;;;;;;5013258;28;20245;-86
2022/04/08 00:53:23;;;;;;;6.20;1.83;;;5.80;99.90;;;;;;5003975;28;20377;-84
2022/04/08 00:55:50;;;;;;;9.97;1.90;;;5.80;99.90;;;;;;5006947;28;20302;-85
2022/04/08 00:58:17;;;;;;;6.40;1.50;;;5.80;99.90;;;;;;5003682;28;20865;-83
2022/04/08 01:00:44;;;;;;;5.87;1.60;;;5.90;99.90;;;;;;5007600;28;20394;-83
2022/04/08 01:03:11;;;;;;;4.90;1.70;;;5.60;99.90;;;;;;5006955;28;20240;-85
2022/04/08 01:05:38;;;;;;;5.37;1.73;;;5.70;99.90;;;;;;5006583;28;20249;-83
2022/04/08 01:08:08;;;;;;;5.20;1.67;;;5.60;99.90;;;;;;5002906;28;20241;-84
2022/04/08 01:10:35;;;;;;;6.30;1.63;;;5.50;99.90;;;;;;5015170;28;20233;-86
2022/04/08 01:13:02;;;;;;;7.90;2.00;;;5.40;99.90;;;;;;5011629;28;20216;-82
2022/04/08 01:15:29;;;;;;;9.80;1.87;;;5.30;99.90;;;;;;5013906;28;20233;-83
2022/04/08 01:17:56;;;;;;;8.90;1.80;;;5.30;99.90;;;;;;5008188;28;20206;-83
2022/04/08 01:20:24;;;;;;;8.57;1.83;;;5.20;99.90;;;;;;5003556;28;20206;-84
2022/04/08 01:22:51;;;;;;;8.30;1.83;;;5.10;99.90;;;;;;5001244;28;20335;-84
2022/04/08 01:25:17;;;;;;;7.17;1.63;;;5.10;99.90;;;;;;5005176;28;20730;-84
2022/04/08 01:27:44;;;;;;;8.10;2.10;;;5.00;99.90;;;;;;5006851;28;20230;-86
2022/04/08 01:30:16;;;;;;;10.63;1.90;;;5.00;99.90;;;;;;5002566;28;20294;-84
2022/04/08 01:32:43;;;;;;;14.47;2.70;;;4.90;99.90;;;;;;5004785;28;20607;-83
2022/04/08 01:35:10;;;;;;;12.80;2.67;;;4.90;99.90;;;;;;5005942;28;20206;-83
2022/04/08 01:37:37;;;;;;;9.17;1.80;;;4.90;99.90;;;;;;5010052;28;20226;-85
2022/04/08 01:40:04;;;;;;;10.90;1.87;;;4.80;99.90;;;;;;5002195;28;20544;-84
2022/04/08 01:42:31;;;;;;;13.37;2.57;;;4.80;99.90;;;;;;5016464;28;20222;-85
2022/04/08 01:44:58;;;;;;;8.73;2.00;;;4.80;99.90;;;;;;5009600;28;20650;-84
2022/04/08 01:47:25;;;;;;;9.20;2.00;;;4.70;99.90;;;;;;5007835;28;20312;-81
2022/04/08 01:49:51;;;;;;;12.47;2.20;;;4.70;99.90;;;;;;5007256;28;20236;-84
2022/04/08 01:52:18;;;;;;;14.97;2.17;;;4.60;99.90;;;;;;5005469;28;20223;-84
2022/04/08 01:54:45;;;;;;;10.37;2.10;;;4.60;99.90;;;;;;5009285;28;20260;-83
2022/04/08 01:57:12;;;;;;;13.00;2.40;;;4.60;99.90;;;;;;5002453;28;20656;-86
2022/04/08 01:59:39;;;;;;;9.37;2.30;;;4.60;99.90;;;;;;5012662;28;20198;-85
2022/04/08 02:02:06;;;;;;;9.47;1.93;;;4.60;99.90;;;;;;5012158;28;20209;-86
2022/04/08 02:04:35;;;;;;;11.03;2.13;;;4.50;99.90;;;;;;5010290;28;20214;-85
2022/04/08 02:07:02;;;;;;;11.73;2.23;;;4.50;99.90;;;;;;4998810;28;20322;-81
2022/04/08 02:09:29;;;;;;;9.43;2.10;;;4.40;99.90;;;;;;5007845;28;20297;-82
2022/04/08 02:11:56;;;;;;;8.17;2.47;;;4.40;99.90;;;;;;5007193;28;20248;-81
2022/04/08 02:14:22;;;;;;;11.63;2.87;;;4.40;99.90;;;;;;5008400;28;20640;-84
2022/04/08 02:16:49;;;;;;;10.23;2.13;;;4.40;99.90;;;;;;5014947;28;20303;-82
2022/04/08 02:19:16;;;;;;;8.83;2.03;;;4.40;99.90;;;;;;5007430;28;20206;-84
2022/04/08 02:21:44;;;;;;;11.43;2.83;;;4.40;99.90;;;;;;5008803;28;20250;-83
2022/04/08 02:24:13;;;;;;;9.90;2.40;;;4.40;99.90;;;;;;5003358;28;20207;-83
2022/04/08 02:26:40;;;;;;;18.43;2.90;;;4.30;99.90;;;;;;5001952;28;20261;-84
2022/04/08 02:29:07;;;;;;;13.00;2.60;;;4.30;99.90;;;;;;5002657;28;20202;-84
2022/04/08 02:31:34;;;;;;;19.47;2.93;;;4.30;99.90;;;;;;5012322;28;20263;-83
2022/04/08 02:34:01;;;;;;;9.10;2.50;;;4.30;99.90;;;;;;5009004;28;20653;-85
2022/04/08 02:36:27;;;;;;;15.33;2.80;;;4.30;99.90;;;;;;5007729;28;20227;-85
2022/04/08 02:38:54;;;;;;;15.67;2.80;;;4.20;99.90;;;;;;5007160;28;20903;-83
2022/04/08 02:41:21;;;;;;;16.43;2.73;;;4.20;99.90;;;;;;5006133;28;20280;-84
2022/04/08 02:43:48;;;;;;;11.17;2.13;;;4.20;99.90;;;;;;5008726;28;20292;-81
2022/04/08 02:46:15;;;;;;;11.30;2.27;;;4.20;99.90;;;;;;5004478;28;20205;-83
2022/04/08 02:48:41;;;;;;;9.03;2.80;;;4.20;99.90;;;;;;5010855;28;20280;-84
2022/04/08 02:51:08;;;;;;;10.17;2.13;;;4.10;99.90;;;;;;5005722;28;20295;-83
2022/04/08 02:53:35;;;;;;;13.60;2.30;;;4.10;99.90;;;;;;5017150;28;20650;-83
2022/04/08 02:56:02;;;;;;;19.00;2.53;;;4.20;99.90;;;;;;5006404;28;20721;-84
2022/04/08 02:58:29;;;;;;;15.43;2.70;;;4.10;99.90;;;;;;5013813;28;20345;-84
2022/04/08 03:00:59;;;;;;;16.20;2.80;;;4.00;99.90;;;;;;5011418;28;20351;-84
2022/04/08 03:03:27;;;;;;;12.90;2.57;;;4.00;99.90;;;;;;5023380;28;20221;-85
2022/04/08 03:05:55;;;;;;;9.87;2.53;;;4.00;99.90;;;;;;5010340;28;20198;-84
2022/04/08 03:08:21;;;;;;;9.77;3.03;;;4.00;99.90;;;;;;5009508;28;20322;-85
2022/04/08 03:10:49;;;;;;;16.30;2.80;;;4.00;99.90;;;;;;5007271;28;20210;-86
2022/04/08 03:13:16;;;;;;;18.27;2.50;;;4.00;99.90;;;;;;5009506;28;20203;-84
2022/04/08 03:15:43;;;;;;;9.00;2.20;;;4.00;99.90;;;;;;5009487;28;20229;-85
2022/04/08 03:18:09;;;;;;;15.37;2.63;;;3.90;99.90;;;;;;5009220;28;20319;-84
2022/04/08 03:20:36;;;;;;;15.37;3.10;;;3.90;99.90;;;;;;5006810;28;20668;-84
2022/04/08 03:23:04;;;;;;;15.17;2.90;;;3.90;99.90;;;;;;5007954;28;20217;-83
2022/04/08 03:25:31;;;;;;;13.90;3.13;;;3.90;99.90;;;;;;5015146;28;20619;-86
2022/04/08 03:27:57;;;;;;;15.97;3.63;;;4.00;99.90;;;;;;5007879;28;20290;-84
2022/04/08 03:30:27;;;;;;;12.17;3.07;;;4.10;99.90;;;;;;5011243;28;20305;-83
2022/04/08 03:32:54;;;;;;;10.27;3.90;;;4.10;99.90;;;;;;5007235;28;20209;-83
2022/04/08 03:35:21;;;;;;;21.07;3.23;;;4.10;99.90;;;;;;5007971;28;20269;-83
2022/04/08 03:37:48;;;;;;;16.00;2.33;;;4.20;99.90;;;;;;5010693;28;20280;-85
2022/04/08 03:40:16;;;;;;;15.47;2.17;;;4.30;99.90;;;;;;5007973;28;20320;-84
2022/04/08 03:42:43;;;;;;;12.07;2.50;;;4.30;99.90;;;;;;5009628;28;20599;-84
2022/04/08 03:45:10;;;;;;;11.80;2.50;;;4.30;99.90;;;;;;5009979;28;20202;-83
2022/04/08 03:47:36;;;;;;;10.40;2.30;;;4.30;99.90;;;;;;5008852;28;20655;-84
2022/04/08 03:50:04;;;;;;;12.07;2.83;;;4.50;99.90;;;;;;5012849;28;20669;-84
2022/04/08 03:52:32;;;;;;;14.30;3.10;;;4.40;99.90;;;;;;5015186;28;20226;-84
2022/04/08 03:55:00;;;;;;;7.47;2.30;;;4.50;99.90;;;;;;5005316;28;20298;-84
2022/04/08 03:57:28;;;;;;;9.67;2.30;;;4.50;99.90;;;;;;5010097;28;20301;-87
2022/04/08 03:59:55;;;;;;;9.50;2.30;;;4.50;99.90;;;;;;5009787;28;20230;-86
2022/04/08 04:02:22;;;;;;;11.17;2.70;;;4.50;99.90;;;;;;5030592;28;20218;-87
2022/04/08 04:04:49;;;;;;;12.93;3.00;;;4.60;99.90;;;;;;5008334;28;20609;-86
2022/04/08 04:07:17;;;;;;;8.27;2.37;;;4.50;99.90;;;;;;5011396;28;20226;-85
2022/04/08 04:09:46;;;;;;;6.50;2.40;;;4.50;99.90;;;;;;5010448;28;20209;-84
2022/04/08 04:12:13;;;;;;;10.50;2.50;;;4.40;99.90;;;;;;5016644;28;20202;-83
2022/04/08 04:14:40;;;;;;;6.10;2.67;;;4.30;99.90;;;;;;5014224;28;20265;-83
2022/04/08 04:17:07;;;;;;;8.90;2.90;;;4.20;99.90;;;;;;5004324;28;20317;-84
2022/04/08 04:19:34;;;;;;;9.43;2.67;;;4.20;99.90;;;;;;5015330;28;20308;-86
2022/04/08 04:22:00;;;;;;;9.37;2.47;;;4.20;99.90;;;;;;5008156;28;20219;-84
2022/04/08 04:24:27;;;;;;;8.80;2.50;;;4.20;99.90;;;;;;5012719;28;20285;-83
2022/04/08 04:26:54;;;;;;;7.67;2.40;;;4.20;99.90;;;;;;5006527;28;20581;-84
2022/04/08 04:29:21;;;;;;;8.83;2.33;;;4.20;99.90;;;;;;5007387;28;20214;-84
2022/04/08 04:31:47;;;;;;;10.07;2.73;;;4.20;99.90;;;;;;5010143;28;20226;-83
2022/04/08 04:34:15;;;;;;;9.40;3.20;;;4.10;99.90;;;;;;5010779;28;20558;-83
2022/04/08 04:36:41;;;;;;;10.23;2.63;;;4.10;99.90;;;;;;5014873;28;20280;-84
2022/04/08 04:39:08;;;;;;;7.73;2.67;;;4.10;99.90;;;;;;5008810;28;20263;-85
2022/04/08 04:41:35;;;;;;;10.57;2.50;;;4.10;99.90;;;;;;5014448;28;20242;-83
2022/04/08 04:44:02;;;;;;;7.87;2.30;;;4.10;99.90;;;;;;5009663;28;20216;-85
2022/04/08 04:46:29;;;;;;;9.53;2.53;;;4.00;99.90;;;;;;5007619;28;20302;-85
2022/04/08 04:48:56;;;;;;;8.40;2.20;;;3.90;99.90;;;;;;5003813;28;20229;-83
2022/04/08 04:51:22;;;;;;;10.43;2.67;;;3.90;99.90;;;;;;5005025;28;20230;-85
2022/04/08 04:53:49;;;;;;;7.63;2.43;;;3.90;99.90;;;;;;5002769;28;20240;-85
2022/04/08 04:56:16;;;;;;;6.07;2.20;;;3.90;99.90;;;;;;5004750;28;20594;-83
2022/04/08 04:58:43;;;;;;;8.23;2.50;;;3.80;99.90;;;;;;5007090;28;20214;-83
2022/04/08 05:01:10;;;;;;;9.33;2.93;;;3.80;99.90;;;;;;5009022;28;20222;-84
2022/04/08 05:03:39;;;;;;;10.80;3.20;;;3.70;99.90;;;;;;5002698;28;20684;-84
2022/04/08 05:06:06;;;;;;;15.93;2.70;;;3.70;99.90;;;;;;5006329;28;20326;-84
2022/04/08 05:08:33;;;;;;;13.63;3.17;;;3.70;99.90;;;;;;5019300;28;20313;-83
2022/04/08 05:11:00;;;;;;;10.87;2.73;;;3.80;99.90;;;;;;5000826;28;20248;-83
2022/04/08 05:13:27;;;;;;;13.73;3.43;;;3.70;99.90;;;;;;5001567;28;20328;-83
2022/04/08 05:15:56;;;;;;;11.47;2.90;;;3.70;99.90;;;;;;5000761;28;20234;-83
2022/04/08 05:18:23;;;;;;;10.73;3.30;;;3.80;99.90;;;;;;5002726;28;20206;-84
2022/04/08 05:20:52;;;;;;;10.23;3.40;;;3.80;99.90;;;;;;5002237;28;20299;-83
2022/04/08 05:23:19;;;;;;;14.53;4.10;;;4.00;99.90;;;;;;5006160;28;20324;-83
2022/04/08 05:25:46;;;;;;;7.70;3.50;;;3.70;99.90;;;;;;5006770;28;20625;-83
2022/04/08 05:28:15;;;;;;;10.03;3.67;;;3.80;99.90;;;;;;5006216;28;20304;-84
2022/04/08 05:30:43;;;;;;;9.50;3.87;;;3.90;99.90;;;;;;5009685;28;20213;-84
2022/04/08 05:33:18;;;;;;;11.07;3.87;;;3.90;99.90;;;;;;5004693;28;20211;-84
2022/04/08 05:35:48;;;;;;;10.67;3.50;;;3.90;99.90;;;;;;4997658;28;20274;-84
2022/04/08 05:38:15;;;;;;;4.10;3.47;;;4.00;99.90;;;;;;4999134;28;20222;-84
2022/04/08 05:40:42;;;;;;;10.17;3.80;;;4.00;99.90;;;;;;5002057;28;20321;-83
2022/04/08 05:43:09;;;;;;;8.83;3.80;;;4.10;99.90;;;;;;5006505;28;20223;-83
2022/04/08 05:45:36;;;;;;;10.67;4.17;;;4.10;99.90;;;;;;5007894;28;20234;-84
2022/04/08 05:48:06;;;;;;;13.43;4.00;;;4.10;99.90;;;;;;5004728;28;20656;-84
2022/04/08 05:50:33;;;;;;;12.63;4.10;;;4.10;99.90;;;;;;5010397;28;20264;-84
2022/04/08 05:53:01;;;;;;;12.70;4.30;;;4.20;99.90;;;;;;5005140;28;20309;-84
2022/04/08 05:55:47;;;;;;;15.73;3.60;;;4.20;99.90;;;;;;5000630;28;20224;-84
2022/04/08 05:58:14;;;;;;;8.60;3.93;;;4.20;99.90;;;;;;5000226;28;20215;-83
2022/04/08 06:00:41;;;;;;;12.10;3.57;;;4.30;99.90;;;;;;5004398;28;20202;-84
2022/04/08 06:03:08;;;;;;;10.03;4.20;;;4.40;99.90;;;;;;4995585;28;20284;-85
2022/04/08 06:05:35;;;;;;;10.13;3.87;;;4.40;99.90;;;;;;4998452;28;20206;-83
2022/04/08 06:08:02;;;;;;;12.17;3.90;;;4.50;99.90;;;;;;5000201;28;20229;-85
2022/04/08 06:10:28;;;;;;;17.97;3.97;;;4.70;99.90;;;;;;5012944;28;20214;-86
2022/04/08 06:12:56;;;;;;;9.53;3.97;;;4.60;99.90;;;;;;5004500;28;20206;-84
2022/04/08 06:15:25;;;;;;;7.00;3.17;;;4.70;99.90;;;;;;5003513;28;20242;-85
2022/04/08 06:17:54;;;;;;;9.20;3.90;;;4.70;99.90;;;;;;5009166;28;20771;-86
2022/04/08 06:20:22;;;;;;;8.03;3.50;;;4.80;99.90;;;;;;5006119;28;20242;-83
2022/04/08 06:22:50;;;;;;;10.73;3.80;;;4.80;99.90;;;;;;5006573;28;20274;-84
2022/04/08 06:25:21;;;;;;;15.40;4.20;;;4.90;99.90;;;;;;5002725;28;20282;-85
2022/04/08 06:28:03;;;;;;;9.07;3.70;;;4.90;99.90;;;;;;5004444;28;20226;-84
2022/04/08 06:30:40;;;;;;;13.90;4.53;;;4.90;99.90;;;;;;5004513;28;20302;-84
2022/04/08 06:33:08;;;;;;;9.60;3.87;;;5.00;99.90;;;;;;5012116;28;20268;-84
2022/04/08 06:35:35;;;;;;;11.17;3.77;;;5.00;99.90;;;;;;5010676;28;20678;-85
2022/04/08 06:38:03;;;;;;;9.73;3.83;;;5.10;99.90;;;;;;5012534;28;20236;-85
2022/04/08 06:40:32;;;;;;;7.93;3.77;;;5.30;99.90;;;;;;5008458;28;20278;-84
2022/04/08 06:43:00;;;;;;;16.70;4.50;;;5.50;99.90;;;;;;5008652;28;20633;-85
2022/04/08 06:45:28;;;;;;;8.87;3.23;;;5.80;99.90;;;;;;5007266;28;20237;-82
2022/04/08 06:47:55;;;;;;;8.97;3.23;;;6.10;99.90;;;;;;5015939;28;20760;-84
2022/04/08 06:50:22;;;;;;;9.20;3.07;;;6.60;99.90;;;;;;5010685;28;20358;-85
2022/04/08 06:52:50;;;;;;;8.60;3.13;;;7.30;99.90;;;;;;5010300;28;20881;-85
2022/04/08 06:55:18;;;;;;;7.67;3.30;;;7.80;99.90;;;;;;5011204;28;20219;-85
2022/04/08 06:57:45;;;;;;;8.17;2.50;;;8.30;99.90;;;;;;5012795;28;20200;-85
2022/04/08 07:00:12;;;;;;;7.10;2.77;;;9.10;99.90;;;;;;5006094;28;20608;-86
2022/04/08 07:02:40;;;;;;;9.13;3.00;;;10.00;99.90;;;;;;5008858;28;20756;-85
2022/04/08 07:05:08;;;;;;;6.70;2.17;;;10.80;99.90;;;;;;5008258;28;20238;-86
2022/04/08 07:07:36;;;;;;;6.33;2.83;;;11.20;99.90;;;;;;5025080;28;20600;-86
2022/04/08 07:10:05;;;;;;;5.17;1.83;;;11.40;99.90;;;;;;5012181;28;20601;-85
2022/04/08 07:12:32;;;;;;;10.70;2.17;;;11.90;99.90;;;;;;5029249;28;20234;-86
2022/04/08 07:14:59;;;;;;;8.67;2.20;;;12.10;99.90;;;;;;5014857;28;20297;-85
2022/04/08 07:17:30;;;;;;;8.80;1.90;;;12.30;99.90;;;;;;5010208;28;20294;-87
2022/04/08 07:20:14;;;;;;;6.30;1.90;;;12.60;99.90;;;;;;5014144;28;20202;-87
2022/04/08 07:22:42;;;;;;;6.18;2.60;;;12.50;99.90;;;;;;5012672;28;20243;-87
2022/04/08 07:25:10;;;;;;;10.50;2.10;;;12.80;99.90;;;;;;5006474;28;20203;-86
2022/04/08 07:27:47;;;;;;;7.60;2.00;;;13.90;99.90;;;;;;5008469;28;20195;-87
2022/04/08 07:30:17;;;;;;;6.10;1.85;;;13.50;99.90;;;;;;5013932;28;20260;-85
2022/04/08 07:32:46;;;;;;;8.13;2.25;;;13.60;99.90;;;;;;5007439;28;20284;-88
2022/04/08 07:35:13;;;;;;;5.18;1.83;;;13.60;99.90;;;;;;5010913;28;20202;-86
2022/04/08 07:37:40;;;;;;;4.68;1.88;;;13.70;99.90;;;;;;5009307;28;20234;-87
2022/04/08 07:40:08;;;;;;;7.68;1.90;;;14.10;99.90;;;;;;5007394;28;20318;-87
2022/04/08 07:42:35;;;;;;;8.45;2.20;;;13.30;99.90;;;;;;5015692;28;20233;-86
2022/04/08 07:45:04;;;;;;;6.07;1.77;;;13.00;99.90;;;;;;5009762;28;20291;-86
2022/04/08 07:47:30;;;;;;;5.47;2.08;;;12.70;99.90;;;;;;5017683;28;20210;-86
2022/04/08 07:49:59;;;;;;;7.20;1.83;;;12.70;99.90;;;;;;5008933;28;20319;-86
2022/04/08 07:52:27;;;;;;;4.88;2.10;;;12.60;99.90;;;;;;5012399;28;20326;-86
2022/04/08 07:54:55;;;;;;;8.43;1.90;;;12.60;99.90;;;;;;5009539;28;20322;-86
2022/04/08 07:57:22;;;;;;;10.50;2.53;;;12.50;99.90;;;;;;5009036;28;20656;-86
2022/04/08 07:59:50;;;;;;;7.83;1.70;;;12.50;99.90;;;;;;5012108;28;20617;-86
2022/04/08 08:02:16;;;;;;;7.53;2.20;;;12.40;99.90;;;;;;5008577;28;20214;-85
2022/04/08 08:04:49;;;;;;;6.77;2.37;;;12.30;99.90;;;;;;5013511;28;20211;-84
2022/04/08 08:07:17;;;;;;;9.53;2.37;;;12.20;99.90;;;;;;5005336;28;20302;-87
2022/04/08 08:09:44;;;;;;;3.83;2.03;;;12.90;99.90;;;;;;5008891;28;20231;-87
2022/04/08 08:12:21;;;;;;;7.77;2.50;;;12.10;99.90;;;;;;5008859;28;20206;-87
2022/04/08 08:14:48;;;;;;;11.07;2.97;;;11.90;99.90;;;;;;5013042;28;20265;-86
2022/04/08 08:17:15;;;;;;;6.60;2.03;;;11.70;99.90;;;;;;5009529;28;20572;-87
2022/04/08 08:19:42;;;;;;;5.87;2.10;;;11.50;99.90;;;;;;5013712;28;20327;-85
2022/04/08 08:22:09;;;;;;;14.43;4.00;;;11.50;99.90;;;;;;5010141;28;20530;-87
2022/04/08 08:24:36;;;;;;;9.90;2.20;;;11.60;99.90;;;;;;5012742;28;20297;-85
2022/04/08 08:27:02;;;;;;;5.77;1.93;;;11.50;99.90;;;;;;5006521;28;20242;-85
2022/04/08 08:29:29;;;;;;;9.07;1.93;;;11.50;99.90;;;;;;5011533;28;20227;-89
2022/04/08 08:31:56;;;;;;;8.20;2.00;;;11.50;99.90;;;;;;5016630;28;20206;-86
2022/04/08 08:34:23;;;;;;;8.57;3.57;;;11.60;99.90;;;;;;5013155;28;20215;-85
2022/04/08 08:36:51;;;;;;;8.07;2.93;;;11.70;99.90;;;;;;5016929;28;20643;-88
2022/04/08 08:39:19;;;;;;;7.27;1.77;;;11.70;99.90;;;;;;5009923;28;20207;-86
2022/04/08 08:41:48;;;;;;;6.37;1.83;;;11.70;99.90;;;;;;5016332;28;20579;-85
2022/04/08 08:44:16;;;;;;;7.87;2.17;;;11.60;99.90;;;;;;5010768;28;20238;-86
2022/04/08 08:46:43;;;;;;;6.77;1.73;;;12.30;99.90;;;;;;5012178;28;20211;-86
2022/04/08 08:49:14;;;;;;;10.43;3.07;;;11.40;99.90;;;;;;5008197;28;20659;-85
2022/04/08 08:51:45;;;;;;;7.53;2.07;;;11.60;99.90;;;;;;5005474;28;20228;-89
2022/04/08 08:54:12;;;;;;;7.40;2.20;;;11.80;99.90;;;;;;5012307;28;20619;-86
2022/04/08 08:56:39;;;;;;;5.83;2.00;;;11.70;99.90;;;;;;5011292;28;20283;-85
2022/04/08 08:59:07;;;;;;;9.93;2.40;;;11.90;99.90;;;;;;5008913;28;20285;-86
2022/04/08 09:01:33;;;;;;;6.07;2.77;;;12.00;99.90;;;;;;5010107;28;20372;-85
2022/04/08 09:04:01;;;;;;;4.63;2.10;;;12.00;99.90;;;;;;5009223;28;20210;-85
2022/04/08 09:06:28;;;;;;;8.43;3.47;;;12.20;99.90;;;;;;5004562;28;20365;-86
2022/04/08 09:08:57;;;;;;;5.97;2.03;;;12.20;99.90;;;;;;5010808;28;20273;-83
2022/04/08 09:11:25;;;;;;;9.13;2.50;;;11.80;99.90;;;;;;5008154;28;20206;-85
2022/04/08 09:13:54;;;;;;;9.90;2.90;;;11.90;99.90;;;;;;5014766;28;20234;-86
2022/04/08 09:16:27;;;;;;;6.20;1.73;;;12.10;99.90;;;;;;5006246;28;20238;-86
2022/04/08 09:18:54;;;;;;;10.70;2.57;;;12.10;99.90;;;;;;5010584;28;20211;-85
2022/04/08 09:21:22;;;;;;;6.07;2.23;;;12.30;99.90;;;;;;5005861;28;20585;-86
2022/04/08 09:23:49;;;;;;;10.83;2.20;;;12.30;99.90;;;;;;5009976;28;20202;-85
2022/04/08 09:26:16;;;;;;;5.90;2.17;;;12.30;99.90;;;;;;5008580;28;20308;-84
2022/04/08 09:28:43;;;;;;;4.80;1.97;;;12.20;99.90;;;;;;5006888;28;20222;-85
2022/04/08 09:31:21;;;;;;;7.30;2.40;;;12.10;99.90;;;;;;5010287;28;20301;-86
2022/04/08 09:33:49;;;;;;;4.40;1.70;;;12.10;99.90;;;;;;5009447;28;20202;-85
2022/04/08 09:36:30;;;;;;;7.43;2.30;;;12.20;99.90;;;;;;5007413;28;20313;-86
2022/04/08 09:38:58;;;;;;;6.33;1.80;;;12.20;99.90;;;;;;5009998;28;20248;-85
2022/04/08 09:41:42;;;;;;;11.47;2.90;;;12.10;99.90;;;;;;5011675;28;20237;-86
2022/04/08 09:44:11;;;;;;;10.83;2.13;;;11.90;99.90;;;;;;5006523;28;20222;-84
2022/04/08 09:46:38;;;;;;;10.70;2.43;;;11.70;99.90;;;;;;5003781;28;20573;-86
2022/04/08 09:49:06;;;;;;;7.83;1.60;;;11.80;99.90;;;;;;5006109;28;20230;-86
2022/04/08 09:51:38;;;;;;;6.13;2.23;;;11.70;99.90;;;;;;5005631;28;20258;-84
2022/04/08 09:54:10;;;;;;;6.30;2.60;;;11.80;99.90;;;;;;5003873;28;20198;-84
2022/04/08 09:56:38;;;;;;;9.17;2.60;;;11.90;99.90;;;;;;5011713;28;20241;-84
2022/04/08 09:59:13;;;;;;;5.60;2.00;;;11.90;99.90;;;;;;5004646;28;20248;-85
2022/04/08 10:02:02;;;;;;;8.23;2.07;;;11.90;99.90;;;;;;5010037;28;20282;-84
2022/04/08 10:04:30;;;;;;;9.83;2.10;;;11.80;99.90;;;;;;5008756;28;20726;-85
2022/04/08 10:06:58;;;;;;;5.93;2.20;;;11.80;99.90;;;;;;5010455;28;20738;-85
2022/04/08 10:09:29;;;;;;;5.80;2.23;;;11.80;99.90;;;;;;5003068;28;20439;-85
2022/04/08 10:12:02;;;;;;;6.13;1.93;;;11.80;99.90;;;;;;5013610;28;20602;-87
2022/04/08 10:14:51;;;;;;;11.83;3.13;;;11.80;99.90;;;;;;5000967;28;20246;-84
2022/04/08 10:17:18;;;;;;;6.40;1.97;;;11.80;99.90;;;;;;5008832;28;20300;-84
2022/04/08 10:19:45;;;;;;;7.37;1.90;;;11.80;99.90;;;;;;5008285;28;20242;-86
2022/04/08 10:22:20;;;;;;;4.50;2.00;;;11.90;99.90;;;;;;5007968;28;20253;-86
2022/04/08 10:24:54;;;;;;;4.70;1.63;;;11.90;99.90;;;;;;5009824;28;20320;-85
2022/04/08 10:27:33;;;;;;;5.20;1.67;;;12.10;99.90;;;;;;5004411;28;20268;-85
2022/04/08 10:30:09;;;;;;;5.50;1.50;;;12.10;99.90;;;;;;5004261;28;20257;-84
2022/04/08 10:32:40;;;;;;;6.07;2.00;;;12.10;99.90;;;;;;5011666;28;20205;-83
2022/04/08 10:35:15;;;;;;;7.17;1.70;;;12.10;99.90;;;;;;5005936;28;20576;-83
2022/04/08 10:37:53;;;;;;;5.37;1.80;;;12.00;99.90;;;;;;5006223;28;20230;-84
2022/04/08 10:40:20;;;;;;;7.63;1.93;;;12.10;99.90;;;;;;5006364;28;20304;-84
2022/04/08 10:43:02;;;;;;;8.20;1.63;;;12.10;99.90;;;;;;5003467;28;20198;-83
2022/04/08 10:45:29;;;;;;;7.50;1.80;;;12.20;99.90;;;;;;5003940;28;20285;-84
2022/04/08 10:48:00;;;;;;;5.50;1.73;;;12.30;99.90;;;;;;4997752;28;20208;-84
2022/04/08 10:50:33;;;;;;;2.70;1.53;;;12.40;99.90;;;;;;5005621;28;20340;-83
2022/04/08 10:53:09;;;;;;;5.63;1.77;;;12.30;99.90;;;;;;4999134;28;20313;-83
2022/04/08 10:55:49;;;;;;;8.37;1.80;;;12.30;99.90;;;;;;5007129;28;20236;-84
2022/04/08 10:58:32;;;;;;;2.87;1.33;;;12.30;99.90;;;;;;5002193;28;20222;-83
2022/04/08 11:01:00;;;;;;;7.60;2.37;;;12.20;99.90;;;;;;5021522;28;20282;-84
2022/04/08 11:03:28;;;;;;;2.50;1.40;;;12.30;99.90;;;;;;4999533;28;20340;-85
2022/04/08 11:05:58;;;;;;;3.80;1.60;;;12.40;99.90;;;;;;5010571;28;20191;-84
2022/04/08 11:08:27;;;;;;;5.00;1.70;;;12.40;99.90;;;;;;5005425;28;20223;-84
2022/04/08 11:10:58;;;;;;;5.27;1.40;;;12.50;99.90;;;;;;4999237;28;20258;-84
2022/04/08 11:13:25;;;;;;;5.93;1.37;;;12.50;99.90;;;;;;5014377;28;20558;-83
2022/04/08 11:15:59;;;;;;;5.67;1.40;;;12.50;99.90;;;;;;4998618;28;20241;-84
2022/04/08 11:18:26;;;;;;;5.07;1.47;;;12.50;99.90;;;;;;5005173;28;20243;-83
2022/04/08 11:20:53;;;;;;;3.43;1.17;;;12.60;99.90;;;;;;4998328;28;20286;-85
2022/04/08 11:23:27;;;;;;;3.77;1.93;;;12.70;99.90;;;;;;5017970;28;20236;-86
2022/04/08 11:25:55;;;;;;;4.63;1.57;;;12.70;99.90;;;;;;5006769;28;20260;-87
2022/04/08 11:28:23;;;;;;;4.53;1.53;;;12.60;99.90;;;;;;5002091;28;20276;-83
2022/04/08 11:30:57;;;;;;;4.87;1.70;;;12.60;99.90;;;;;;5015917;28;20234;-89
2022/04/08 11:33:25;;;;;;;7.47;2.03;;;12.60;99.90;;;;;;5001026;28;20300;-85
2022/04/08 11:35:57;;;;;;;5.90;1.93;;;12.40;99.90;;;;;;4996006;28;20298;-85
2022/04/08 11:38:25;;;;;;;6.10;1.30;;;12.40;99.90;;;;;;4995929;28;20594;-85
2022/04/08 11:40:52;;;;;;;4.33;1.43;;;12.30;99.90;;;;;;4999637;28;20803;-83
2022/04/08 11:43:21;;;;;;;8.57;2.00;;;12.20;99.90;;;;;;5002521;28;20222;-83
2022/04/08 11:45:52;;;;;;;3.57;1.50;;;12.20;99.90;;;;;;5002086;28;20207;-84
2022/04/08 11:48:21;;;;;;;4.13;1.50;;;12.20;99.90;;;;;;5002369;28;20199;-85
2022/04/08 11:50:55;;;;;;;6.67;1.40;;;12.30;99.90;;;;;;5013611;28;20622;-84
2022/04/08 11:53:23;;;;;;;4.70;2.00;;;12.30;99.90;;;;;;5000424;28;20226;-84
2022/04/08 11:56:02;;;;;;;6.07;1.77;;;12.30;99.90;;;;;;5007628;28;20245;-82
2022/04/08 11:58:33;;;;;;;4.10;1.67;;;12.20;99.90;;;;;;5010563;28;20267;-83
2022/04/08 12:01:06;;;;;;;4.53;1.53;;;12.30;99.90;;;;;;5010453;28;20248;-84
2022/04/08 12:03:36;;;;;;;5.23;1.60;;;12.40;99.90;;;;;;5010124;28;20566;-85
2022/04/08 12:06:04;;;;;;;7.40;1.30;;;12.50;99.90;;;;;;5007910;28;20300;-85
2022/04/08 12:08:37;;;;;;;3.53;1.47;;;12.50;99.90;;;;;;5007843;28;20698;-83
2022/04/08 12:11:09;;;;;;;6.77;1.60;;;12.60;99.90;;;;;;5003551;28;20223;-84
2022/04/08 12:13:40;;;;;;;10.53;2.77;;;12.70;99.90;;;;;;5003423;28;20231;-84
2022/04/08 12:16:12;;;;;;;5.23;2.13;;;12.60;99.90;;;;;;5016756;28;20227;-82
2022/04/08 12:18:54;;;;;;;6.20;1.93;;;12.60;99.90;;;;;;5005528;28;20206;-83
2022/04/08 12:21:43;;;;;;;4.27;1.50;;;12.60;99.90;;;;;;5005451;28;20788;-82
2022/04/08 12:24:10;;;;;;;6.03;1.40;;;12.30;99.90;;;;;;5007965;28;20790;-83
2022/04/08 12:26:38;;;;;;;3.87;1.50;;;12.30;99.90;;;;;;5004754;28;20288;-82
2022/04/08 12:29:16;;;;;;;9.53;2.17;;;12.40;99.90;;;;;;5003037;28;20692;-85
2022/04/08 12:31:45;;;;;;;2.03;1.07;;;12.40;99.90;;;;;;5008246;28;20233;-84
2022/04/08 12:34:14;;;;;;;3.47;1.83;;;12.50;99.90;;;;;;5005433;28;20213;-87
2022/04/08 12:36:45;;;;;;;4.63;1.53;;;12.70;99.90;;;;;;5004112;28;20624;-86
2022/04/08 12:39:14;;;;;;;2.53;1.40;;;12.70;99.90;;;;;;5002439;28;20201;-85
2022/04/08 12:41:42;;;;;;;5.43;1.43;;;12.80;99.90;;;;;;5007675;28;20337;-86
2022/04/08 12:44:10;;;;;;;3.20;1.40;;;12.90;99.90;;;;;;5004420;28;20561;-85
2022/04/08 12:46:37;;;;;;;5.27;1.37;;;12.90;99.90;;;;;;5000827;28;20241;-86
2022/04/08 12:49:05;;;;;;;4.30;1.27;;;13.00;99.90;;;;;;4999538;28;20285;-85
2022/04/08 12:51:33;;;;;;;5.90;1.60;;;13.10;99.90;;;;;;4997887;28;20222;-86
2022/04/08 12:54:00;;;;;;;4.20;1.53;;;13.20;99.90;;;;;;5002638;28;20313;-85
2022/04/08 12:56:27;;;;;;;5.23;1.63;;;13.20;99.90;;;;;;5005965;28;20686;-84
2022/04/08 12:58:54;;;;;;;5.83;1.30;;;13.20;99.90;;;;;;5003796;28;20202;-82